Time;durP1;ratioP1;P1;durP2;ratioP2;P2;SDS_P1;SDS_P2;PMS_P1;PMS_P2;Temp;Humidity;BMP_temperature;BMP_pressure;BME280_temperature;BME280_humidity;BME280_pressure;Samples;Min_cycle;Max_cycle;Signal;HPM_P1;HPM_P2
2021/11/22 00:01:32;;;;;;;3.13;1.70;;;20.70;54.10;;;;;;5032506;28;20065;-57
2021/11/22 00:03:57;;;;;;;3.13;1.60;;;20.80;54.20;;;;;;5034000;28;20037;-57
2021/11/22 00:06:23;;;;;;;3.22;1.60;;;20.70;54.20;;;;;;5036545;28;20037;-59
2021/11/22 00:08:48;;;;;;;2.65;1.50;;;20.70;54.20;;;;;;5030991;28;20123;-55
2021/11/22 00:11:14;;;;;;;2.30;1.42;;;20.70;54.20;;;;;;5033971;28;20035;-59
2021/11/22 00:13:40;;;;;;;2.63;1.50;;;20.70;54.20;;;;;;5032943;28;20033;-59
2021/11/22 00:16:07;;;;;;;2.30;1.40;;;20.70;54.20;;;;;;5032661;28;20041;-58
2021/11/22 00:18:33;;;;;;;2.65;1.48;;;20.70;54.20;;;;;;5034389;28;20104;-59
2021/11/22 00:20:58;;;;;;;2.67;1.40;;;20.70;54.20;;;;;;5035188;28;20128;-59
2021/11/22 00:23:24;;;;;;;2.45;1.50;;;20.70;54.20;;;;;;5037566;28;20024;-55
2021/11/22 00:25:49;;;;;;;2.55;1.50;;;20.70;54.20;;;;;;5033357;28;20547;-57
2021/11/22 00:28:15;;;;;;;3.72;1.60;;;20.70;54.20;;;;;;5032753;28;20025;-59
2021/11/22 00:30:41;;;;;;;2.90;1.40;;;20.60;54.20;;;;;;5036167;28;20186;-59
2021/11/22 00:33:09;;;;;;;3.65;1.65;;;20.60;54.20;;;;;;5032942;28;20017;-53
2021/11/22 00:35:35;;;;;;;2.90;1.70;;;20.60;54.20;;;;;;5027619;28;20033;-59
2021/11/22 00:38:04;;;;;;;2.17;1.30;;;20.60;54.20;;;;;;5032582;28;20029;-59
2021/11/22 00:40:30;;;;;;;3.28;1.50;;;20.60;54.20;;;;;;5030817;28;20029;-59
2021/11/22 00:42:56;;;;;;;3.50;1.48;;;20.60;54.20;;;;;;5032768;28;20041;-59
2021/11/22 00:45:22;;;;;;;3.50;1.50;;;20.60;54.20;;;;;;5029673;28;20473;-58
2021/11/22 00:47:48;;;;;;;2.53;1.70;;;20.60;54.20;;;;;;5031523;28;20025;-59
2021/11/22 00:50:14;;;;;;;2.20;1.30;;;20.60;54.20;;;;;;5033508;28;20393;-57
2021/11/22 00:52:40;;;;;;;2.00;1.33;;;20.60;54.20;;;;;;5036233;28;20025;-60
2021/11/22 00:55:06;;;;;;;3.58;1.60;;;20.60;54.20;;;;;;5032942;28;20056;-55
2021/11/22 00:57:31;;;;;;;2.60;1.33;;;20.60;54.20;;;;;;5040364;28;20207;-58
2021/11/22 00:59:58;;;;;;;2.03;1.30;;;20.60;54.20;;;;;;5032807;28;20120;-56
2021/11/22 01:02:24;;;;;;;2.78;1.50;;;20.60;54.20;;;;;;5034925;28;20111;-60
2021/11/22 01:04:50;;;;;;;2.33;1.40;;;20.50;54.20;;;;;;5041860;28;20045;-55
2021/11/22 01:07:16;;;;;;;4.22;1.55;;;20.50;54.20;;;;;;5041086;28;20024;-58
2021/11/22 01:09:41;;;;;;;2.10;1.25;;;20.50;54.20;;;;;;5029634;28;20726;-56
2021/11/22 01:12:08;;;;;;;1.95;1.30;;;20.50;54.20;;;;;;5039309;28;20061;-59
2021/11/22 01:14:34;;;;;;;2.60;1.50;;;20.50;54.20;;;;;;5035440;28;20025;-59
2021/11/22 01:17:00;;;;;;;2.53;1.30;;;20.50;54.30;;;;;;5040835;28;20053;-59
2021/11/22 01:19:26;;;;;;;1.98;1.30;;;20.50;54.30;;;;;;5032278;28;20033;-59
2021/11/22 01:21:52;;;;;;;2.40;1.40;;;20.50;54.70;;;;;;5033417;28;20116;-59
2021/11/22 01:24:18;;;;;;;2.17;1.30;;;20.50;54.20;;;;;;5031124;28;20123;-59
2021/11/22 01:26:43;;;;;;;2.97;1.30;;;20.50;54.30;;;;;;5040613;28;20466;-58
2021/11/22 01:29:09;;;;;;;3.17;1.20;;;20.50;54.20;;;;;;5038334;28;20060;-59
2021/11/22 01:31:35;;;;;;;2.67;1.42;;;20.40;54.20;;;;;;5033983;28;20405;-57
2021/11/22 01:34:00;;;;;;;1.92;1.30;;;20.50;54.30;;;;;;5035251;28;20025;-59
2021/11/22 01:36:26;;;;;;;2.08;1.40;;;20.50;54.30;;;;;;5035375;28;20033;-60
2021/11/22 01:38:51;;;;;;;2.28;1.40;;;20.50;54.30;;;;;;5032223;28;20040;-57
2021/11/22 01:41:17;;;;;;;2.20;1.33;;;20.40;54.20;;;;;;5042215;28;20064;-58
2021/11/22 01:43:43;;;;;;;2.20;1.38;;;20.40;54.30;;;;;;5033153;28;20048;-59
2021/11/22 01:46:19;;;;;;;2.10;1.33;;;20.40;54.20;;;;;;5034912;28;20116;-58
2021/11/22 01:48:45;;;;;;;1.77;1.17;;;20.40;54.20;;;;;;5031855;28;20044;-59
2021/11/22 01:51:11;;;;;;;2.67;1.35;;;20.40;54.20;;;;;;5033920;28;20093;-57
2021/11/22 01:53:37;;;;;;;2.30;1.20;;;20.40;54.20;;;;;;5032561;28;20033;-56
2021/11/22 01:56:03;;;;;;;2.30;1.40;;;20.40;54.20;;;;;;5035248;28;20036;-59
2021/11/22 01:58:29;;;;;;;2.85;1.55;;;20.40;54.30;;;;;;5033904;28;20029;-59
2021/11/22 02:00:56;;;;;;;2.45;1.40;;;20.40;54.20;;;;;;5037076;28;20034;-58
2021/11/22 02:03:22;;;;;;;1.85;1.15;;;20.40;54.30;;;;;;5033538;28;20029;-57
2021/11/22 02:05:52;;;;;;;2.72;1.30;;;20.40;54.30;;;;;;5032671;28;20221;-56
2021/11/22 02:08:21;;;;;;;2.00;1.20;;;20.40;54.30;;;;;;5037921;28;20441;-60
2021/11/22 02:10:48;;;;;;;2.20;1.40;;;20.40;54.30;;;;;;5034811;28;20029;-57
2021/11/22 02:13:15;;;;;;;2.00;1.30;;;20.40;54.30;;;;;;5033197;28;20037;-57
2021/11/22 02:15:41;;;;;;;1.80;1.30;;;20.40;54.30;;;;;;5034015;28;20684;-57
2021/11/22 02:18:08;;;;;;;2.00;1.33;;;20.40;54.30;;;;;;5032680;28;20033;-59
2021/11/22 02:20:35;;;;;;;2.00;1.20;;;20.40;54.30;;;;;;5029871;28;20030;-59
2021/11/22 02:23:04;;;;;;;1.70;1.20;;;20.40;54.30;;;;;;5040040;28;20040;-58
2021/11/22 02:25:32;;;;;;;1.88;1.13;;;20.40;54.30;;;;;;5027415;28;20025;-58
2021/11/22 02:27:59;;;;;;;2.13;1.30;;;20.40;54.30;;;;;;5036650;28;20033;-60
2021/11/22 02:30:30;;;;;;;2.00;1.25;;;20.30;54.20;;;;;;5035172;28;20108;-59
2021/11/22 02:32:59;;;;;;;2.40;1.30;;;20.30;54.20;;;;;;5031071;28;20069;-59
2021/11/22 02:35:25;;;;;;;2.27;1.30;;;20.30;54.20;;;;;;5032710;28;20559;-57
2021/11/22 02:37:50;;;;;;;2.53;1.38;;;20.30;54.20;;;;;;5035084;28;20043;-56
2021/11/22 02:40:16;;;;;;;1.67;1.13;;;20.30;54.20;;;;;;5025458;28;20037;-59
2021/11/22 02:42:44;;;;;;;1.42;1.10;;;20.30;54.20;;;;;;5035078;28;20036;-58
2021/11/22 02:45:12;;;;;;;2.17;1.30;;;20.30;54.30;;;;;;5036779;28;20045;-60
2021/11/22 02:47:41;;;;;;;1.50;1.10;;;20.30;54.30;;;;;;5030514;28;20056;-58
2021/11/22 02:50:08;;;;;;;2.17;1.20;;;20.30;54.30;;;;;;5034735;28;20033;-58
2021/11/22 02:52:35;;;;;;;1.70;1.13;;;20.30;54.30;;;;;;5034081;28;20128;-58
2021/11/22 02:55:00;;;;;;;1.88;1.20;;;20.30;54.30;;;;;;5026611;28;20030;-54
2021/11/22 02:57:26;;;;;;;1.85;1.10;;;20.30;54.30;;;;;;5035779;28;20513;-58
2021/11/22 02:59:52;;;;;;;2.00;1.15;;;20.30;54.30;;;;;;5035392;28;20032;-59
2021/11/22 03:02:17;;;;;;;1.70;1.15;;;20.30;54.30;;;;;;5033021;28;20091;-57
2021/11/22 03:04:44;;;;;;;2.33;1.23;;;20.30;54.30;;;;;;5037764;28;20037;-59
2021/11/22 03:07:11;;;;;;;1.50;1.10;;;20.20;54.30;;;;;;5035947;28;20049;-55
2021/11/22 03:09:37;;;;;;;2.35;1.13;;;20.20;54.30;;;;;;5033064;28;20039;-57
2021/11/22 03:12:07;;;;;;;2.22;1.40;;;20.20;54.30;;;;;;5039958;28;20060;-58
2021/11/22 03:14:34;;;;;;;2.03;1.27;;;20.20;54.30;;;;;;5032253;28;20033;-58
2021/11/22 03:17:00;;;;;;;2.40;1.20;;;20.20;54.30;;;;;;5034244;28;20438;-59
2021/11/22 03:19:27;;;;;;;1.92;1.10;;;20.20;54.30;;;;;;5033630;28;20032;-59
2021/11/22 03:21:54;;;;;;;2.50;1.25;;;20.20;54.30;;;;;;5037766;28;20033;-58
2021/11/22 03:24:19;;;;;;;2.00;1.15;;;20.20;54.30;;;;;;5029726;28;20583;-59
2021/11/22 03:26:46;;;;;;;2.38;1.20;;;20.20;54.30;;;;;;5040463;28;20021;-57
2021/11/22 03:29:13;;;;;;;1.50;1.10;;;20.20;54.30;;;;;;5030453;28;20029;-53
2021/11/22 03:31:39;;;;;;;1.35;1.00;;;20.20;54.30;;;;;;5035083;28;20033;-56
2021/11/22 03:34:06;;;;;;;1.70;1.10;;;20.20;54.30;;;;;;5035754;28;20114;-59
2021/11/22 03:36:33;;;;;;;1.85;1.17;;;20.20;54.30;;;;;;5033086;28;20067;-58
2021/11/22 03:39:00;;;;;;;1.83;1.20;;;20.20;54.30;;;;;;5028567;28;20693;-57
2021/11/22 03:41:29;;;;;;;1.17;1.00;;;20.20;54.30;;;;;;5033457;28;20029;-58
2021/11/22 03:43:58;;;;;;;1.60;1.10;;;20.20;54.30;;;;;;5034054;28;20040;-53
2021/11/22 03:46:25;;;;;;;1.80;1.20;;;20.20;54.30;;;;;;5031533;28;20867;-52
2021/11/22 03:48:51;;;;;;;1.35;1.10;;;20.10;54.30;;;;;;5035442;28;20504;-57
2021/11/22 03:51:19;;;;;;;1.25;0.90;;;20.20;54.30;;;;;;5035766;28;20033;-59
2021/11/22 03:53:45;;;;;;;1.77;1.10;;;20.10;54.30;;;;;;5028604;28;20029;-58
2021/11/22 03:56:11;;;;;;;1.80;1.20;;;20.10;54.30;;;;;;5028194;28;20053;-59
2021/11/22 03:58:37;;;;;;;1.48;0.98;;;20.10;54.30;;;;;;5034192;28;20127;-58
2021/11/22 04:01:04;;;;;;;1.67;1.30;;;20.10;54.30;;;;;;5030216;28;20030;-60
2021/11/22 04:03:30;;;;;;;1.40;0.90;;;20.10;54.30;;;;;;5034070;28;20127;-58
2021/11/22 04:05:55;;;;;;;1.98;1.10;;;20.10;54.30;;;;;;5030981;28;20049;-57
2021/11/22 04:08:21;;;;;;;1.35;1.02;;;20.10;54.30;;;;;;5037391;28;20358;-59
2021/11/22 04:10:47;;;;;;;1.85;1.30;;;20.10;54.30;;;;;;5029723;28;20066;-59
2021/11/22 04:13:13;;;;;;;1.83;1.10;;;20.10;54.30;;;;;;5035412;28;20472;-59
2021/11/22 04:15:39;;;;;;;1.98;1.10;;;20.10;54.30;;;;;;5033284;28;20034;-58
2021/11/22 04:18:05;;;;;;;1.83;1.23;;;20.10;54.40;;;;;;5032059;28;20037;-53
2021/11/22 04:20:31;;;;;;;1.58;0.95;;;20.10;54.30;;;;;;5026868;28;20496;-57
2021/11/22 04:22:58;;;;;;;1.83;1.00;;;20.10;54.40;;;;;;5034135;28;20148;-59
2021/11/22 04:25:23;;;;;;;1.23;0.90;;;20.10;54.40;;;;;;5027064;28;20090;-59
2021/11/22 04:27:49;;;;;;;1.30;0.90;;;20.10;54.40;;;;;;5034815;28;20029;-58
2021/11/22 04:30:16;;;;;;;1.63;0.90;;;20.10;54.40;;;;;;5033158;28;20025;-57
2021/11/22 04:32:42;;;;;;;1.63;1.20;;;20.10;54.40;;;;;;5036849;28;20370;-57
2021/11/22 04:35:11;;;;;;;1.33;0.98;;;20.10;54.40;;;;;;5032295;28;20034;-57
2021/11/22 04:37:38;;;;;;;1.33;0.95;;;20.00;54.40;;;;;;5033834;28;20064;-54
2021/11/22 04:40:06;;;;;;;1.70;1.05;;;20.10;54.40;;;;;;5025053;28;20036;-60
2021/11/22 04:42:32;;;;;;;1.55;1.02;;;20.10;54.40;;;;;;5027719;28;20033;-59
2021/11/22 04:44:58;;;;;;;1.55;1.00;;;20.00;54.90;;;;;;5032906;28;20103;-58
2021/11/22 04:47:23;;;;;;;1.50;1.10;;;20.00;54.40;;;;;;5033114;28;20067;-57
2021/11/22 04:49:51;;;;;;;1.90;0.90;;;20.00;54.40;;;;;;5030222;28;20080;-58
2021/11/22 04:52:17;;;;;;;1.38;0.98;;;20.10;54.50;;;;;;5030194;28;20020;-57
2021/11/22 04:54:43;;;;;;;2.67;1.38;;;20.00;54.40;;;;;;5029198;28;20045;-59
2021/11/22 04:57:09;;;;;;;1.48;1.02;;;20.00;54.40;;;;;;5034696;28;20036;-59
2021/11/22 04:59:36;;;;;;;1.20;0.90;;;20.00;54.40;;;;;;5031292;28;20029;-58
2021/11/22 05:02:02;;;;;;;1.55;1.10;;;20.00;54.40;;;;;;5030121;28;20040;-59
2021/11/22 05:04:28;;;;;;;1.77;1.00;;;20.00;54.50;;;;;;5029881;28;20037;-58
2021/11/22 05:06:53;;;;;;;2.00;1.20;;;20.00;54.50;;;;;;5036105;28;20037;-60
2021/11/22 05:09:22;;;;;;;1.42;0.98;;;20.00;54.50;;;;;;5023945;28;20798;-59
2021/11/22 05:11:49;;;;;;;1.97;1.17;;;20.00;54.60;;;;;;5036033;28;20032;-55
2021/11/22 05:14:15;;;;;;;1.10;0.90;;;20.00;54.60;;;;;;5033126;28;20121;-54
2021/11/22 05:16:43;;;;;;;1.60;1.00;;;20.00;54.60;;;;;;5031356;28;20686;-59
2021/11/22 05:19:11;;;;;;;1.33;1.00;;;20.00;54.60;;;;;;5032523;28;20052;-58
2021/11/22 05:21:37;;;;;;;1.38;0.90;;;20.00;54.70;;;;;;5029722;28;20037;-61
2021/11/22 05:24:04;;;;;;;1.38;0.98;;;20.00;54.70;;;;;;5026182;28;20063;-59
2021/11/22 05:26:31;;;;;;;1.38;0.90;;;19.90;54.70;;;;;;5032731;28;20086;-56
2021/11/22 05:28:57;;;;;;;0.95;0.80;;;19.90;54.70;;;;;;5032982;28;20014;-58
2021/11/22 05:31:23;;;;;;;1.33;0.85;;;19.90;54.70;;;;;;5033696;28;20064;-58
2021/11/22 05:33:50;;;;;;;1.33;1.00;;;19.90;54.80;;;;;;5029405;28;20079;-60
2021/11/22 05:36:16;;;;;;;1.20;0.90;;;19.90;54.80;;;;;;5033257;28;20025;-59
2021/11/22 05:38:41;;;;;;;1.63;0.90;;;19.90;54.80;;;;;;5037697;28;20423;-58
2021/11/22 05:41:07;;;;;;;1.10;0.80;;;20.00;55.00;;;;;;5032237;28;20021;-61
2021/11/22 05:43:35;;;;;;;1.70;1.00;;;19.90;54.80;;;;;;5037170;28;20025;-60
2021/11/22 05:46:01;;;;;;;3.53;0.95;;;19.90;54.90;;;;;;5033138;28;20115;-60
2021/11/22 05:48:26;;;;;;;1.27;0.93;;;19.90;55.00;;;;;;5031805;28;20112;-62
2021/11/22 05:50:54;;;;;;;1.50;1.08;;;19.90;55.00;;;;;;5033832;28;20052;-59
2021/11/22 05:53:22;;;;;;;1.40;0.90;;;19.90;55.00;;;;;;5035412;28;20029;-60
2021/11/22 05:55:51;;;;;;;1.33;0.90;;;19.90;55.00;;;;;;5032844;28;20042;-62
2021/11/22 05:58:17;;;;;;;1.67;1.00;;;19.90;55.10;;;;;;5032530;28;20021;-61
2021/11/22 06:00:43;;;;;;;1.42;0.98;;;19.90;55.10;;;;;;5035129;28;20087;-61
2021/11/22 06:03:09;;;;;;;2.50;1.00;;;19.90;55.10;;;;;;5031956;28;20079;-59
2021/11/22 06:05:35;;;;;;;1.65;0.98;;;19.90;55.10;;;;;;5034549;28;20109;-60
2021/11/22 06:08:01;;;;;;;1.92;1.00;;;19.90;55.20;;;;;;5033527;28;20095;-61
2021/11/22 06:10:27;;;;;;;1.17;0.90;;;19.90;55.60;;;;;;5032601;28;20025;-59
2021/11/22 06:12:53;;;;;;;1.77;1.00;;;19.90;55.20;;;;;;5035464;28;20117;-56
2021/11/22 06:15:19;;;;;;;1.30;0.90;;;19.90;55.20;;;;;;5036395;28;20051;-62
2021/11/22 06:17:45;;;;;;;1.80;0.98;;;19.90;55.20;;;;;;5039841;28;20434;-59
2021/11/22 06:20:11;;;;;;;1.50;1.00;;;19.90;55.20;;;;;;5042819;28;20135;-59
2021/11/22 06:22:37;;;;;;;1.90;1.08;;;19.90;55.20;;;;;;5034066;28;20115;-60
2021/11/22 06:25:04;;;;;;;1.55;1.05;;;19.90;55.30;;;;;;5032341;28;20090;-58
2021/11/22 06:27:29;;;;;;;1.35;0.80;;;20.00;56.60;;;;;;5033906;28;20029;-60
2021/11/22 06:29:55;;;;;;;1.95;1.08;;;20.20;56.20;;;;;;5033699;28;20390;-59
2021/11/22 06:32:25;;;;;;;2.13;1.10;;;20.50;56.40;;;;;;5031900;28;20034;-58
2021/11/22 06:34:51;;;;;;;2.05;1.10;;;20.70;56.60;;;;;;5032978;28;20737;-59
2021/11/22 06:37:16;;;;;;;1.67;1.25;;;21.00;56.20;;;;;;5034201;28;20076;-60
2021/11/22 06:39:42;;;;;;;1.83;1.00;;;21.20;55.60;;;;;;5029336;28;20040;-60
2021/11/22 06:42:08;;;;;;;1.60;1.00;;;21.40;55.20;;;;;;5038479;28;20029;-59
2021/11/22 06:44:34;;;;;;;1.75;0.95;;;21.70;55.00;;;;;;5037438;28;20640;-61
2021/11/22 06:47:00;;;;;;;1.30;1.00;;;21.90;54.70;;;;;;5034468;28;20025;-60
2021/11/22 06:49:25;;;;;;;1.48;0.95;;;22.10;54.30;;;;;;5034349;28;20086;-60
2021/11/22 06:51:52;;;;;;;1.52;1.15;;;22.30;54.10;;;;;;5031569;28;20109;-60
2021/11/22 06:54:17;;;;;;;1.42;1.00;;;22.50;53.90;;;;;;5035523;28;20037;-60
2021/11/22 06:56:44;;;;;;;1.80;1.00;;;22.60;53.80;;;;;;5029195;28;20773;-60
2021/11/22 06:59:10;;;;;;;1.98;0.90;;;22.80;53.50;;;;;;5038157;28;20157;-59
2021/11/22 07:01:35;;;;;;;1.23;0.80;;;22.90;53.40;;;;;;5039599;28;20033;-58
2021/11/22 07:04:01;;;;;;;1.15;0.70;;;23.10;53.30;;;;;;5026810;28;20041;-57
2021/11/22 07:06:27;;;;;;;1.10;0.70;;;23.10;53.10;;;;;;5032162;28;20024;-60
2021/11/22 07:08:53;;;;;;;0.55;0.55;;;23.00;53.20;;;;;;5035937;28;20040;-61
2021/11/22 07:11:18;;;;;;;1.02;0.70;;;22.90;53.40;;;;;;5034327;28;22293;-58
2021/11/22 07:13:44;;;;;;;0.80;0.60;;;22.80;53.50;;;;;;5034657;28;20037;-59
2021/11/22 07:16:10;;;;;;;0.60;0.60;;;22.70;53.70;;;;;;5031242;28;20017;-58
2021/11/22 07:18:36;;;;;;;0.68;0.60;;;22.70;53.90;;;;;;5035161;28;20040;-60
2021/11/22 07:21:02;;;;;;;1.23;0.80;;;22.70;54.00;;;;;;5030552;28;20025;-59
2021/11/22 07:23:28;;;;;;;1.25;0.70;;;22.70;54.20;;;;;;5032292;28;20036;-60
2021/11/22 07:25:55;;;;;;;0.95;0.68;;;22.70;54.60;;;;;;5031264;28;20109;-60
2021/11/22 07:28:23;;;;;;;1.88;0.60;;;22.70;54.40;;;;;;5030705;28;20104;-60
2021/11/22 07:30:49;;;;;;;0.82;0.60;;;22.70;54.40;;;;;;5033943;28;20033;-59
2021/11/22 07:33:16;;;;;;;0.60;0.57;;;22.70;54.40;;;;;;5032253;28;20025;-60
2021/11/22 07:35:41;;;;;;;1.13;0.68;;;22.70;54.40;;;;;;5038262;28;20025;-59
2021/11/22 07:38:08;;;;;;;0.60;0.60;;;22.70;54.40;;;;;;5029966;28;20139;-60
2021/11/22 07:40:34;;;;;;;0.70;0.60;;;22.70;54.50;;;;;;5028616;28;20402;-61
2021/11/22 07:43:00;;;;;;;0.70;0.60;;;22.80;54.60;;;;;;5033752;28;20056;-58
2021/11/22 07:45:26;;;;;;;1.20;0.77;;;22.80;54.70;;;;;;5031054;28;20045;-59
2021/11/22 07:47:53;;;;;;;0.50;0.50;;;22.80;54.60;;;;;;5031020;28;20025;-61
2021/11/22 07:50:23;;;;;;;1.50;0.70;;;22.80;54.60;;;;;;5051228;28;20028;-60
2021/11/22 07:52:50;;;;;;;0.55;0.55;;;22.80;54.60;;;;;;5034332;28;20051;-60
2021/11/22 07:55:16;;;;;;;1.85;0.70;;;22.80;54.60;;;;;;5034834;28;20369;-60
2021/11/22 07:57:42;;;;;;;0.70;0.50;;;22.80;54.60;;;;;;5033671;28;20047;-60
2021/11/22 08:00:10;;;;;;;1.83;0.60;;;22.90;54.50;;;;;;5033290;28;20048;-61
2021/11/22 08:02:36;;;;;;;1.75;0.60;;;22.90;54.70;;;;;;5035089;28;20045;-60
2021/11/22 08:05:03;;;;;;;0.85;0.60;;;22.90;54.70;;;;;;5032042;28;20028;-59
2021/11/22 08:07:29;;;;;;;0.73;0.60;;;22.90;54.60;;;;;;5032556;28;20112;-60
2021/11/22 08:10:00;;;;;;;0.80;0.60;;;22.90;54.50;;;;;;5031757;28;20033;-58
2021/11/22 08:12:27;;;;;;;0.60;0.60;;;22.90;54.50;;;;;;5036083;28;20028;-58
2021/11/22 08:15:09;;;;;;;0.60;0.60;;;23.00;54.40;;;;;;5035894;28;20029;-60
2021/11/22 08:17:39;;;;;;;1.35;0.88;;;23.00;54.40;;;;;;5036172;28;20079;-60
2021/11/22 08:20:07;;;;;;;0.73;0.60;;;23.00;54.40;;;;;;5028167;28;20037;-58
2021/11/22 08:22:34;;;;;;;0.95;0.60;;;23.00;54.30;;;;;;5035567;28;20033;-60
2021/11/22 08:24:59;;;;;;;0.80;0.70;;;23.00;54.30;;;;;;5028493;28;20048;-60
2021/11/22 08:27:28;;;;;;;0.80;0.60;;;23.00;54.20;;;;;;5036021;28;20026;-61
2021/11/22 08:29:54;;;;;;;1.30;0.70;;;23.00;54.40;;;;;;5031511;28;20052;-61
2021/11/22 08:32:20;;;;;;;1.02;0.63;;;23.00;54.40;;;;;;5034804;28;20083;-59
2021/11/22 08:34:46;;;;;;;1.95;0.60;;;23.00;54.30;;;;;;5033085;28;20029;-61
2021/11/22 08:37:12;;;;;;;1.02;0.60;;;23.10;54.60;;;;;;5030743;28;20028;-58
2021/11/22 08:39:38;;;;;;;0.70;0.60;;;23.10;54.50;;;;;;5029618;28;20396;-60
2021/11/22 08:42:05;;;;;;;0.98;0.60;;;23.10;54.30;;;;;;5032323;28;20091;-60
2021/11/22 08:44:32;;;;;;;0.80;0.60;;;23.10;54.30;;;;;;5037458;28;20148;-60
2021/11/22 08:46:59;;;;;;;0.68;0.57;;;23.10;54.50;;;;;;5029946;28;20033;-60
2021/11/22 08:49:25;;;;;;;0.65;0.60;;;23.10;55.40;;;;;;5030949;28;20037;-60
2021/11/22 08:51:51;;;;;;;0.88;0.70;;;23.20;55.30;;;;;;5033004;28;20096;-59
2021/11/22 08:54:17;;;;;;;0.80;0.70;;;23.10;55.10;;;;;;5033852;28;20164;-58
2021/11/22 08:56:45;;;;;;;0.80;0.60;;;23.20;55.70;;;;;;5030791;28;20521;-60
2021/11/22 08:59:11;;;;;;;1.10;0.63;;;23.20;55.00;;;;;;5032455;28;20034;-60
2021/11/22 09:01:38;;;;;;;0.85;0.70;;;23.20;55.40;;;;;;5030611;28;20128;-60
2021/11/22 09:04:04;;;;;;;1.83;0.90;;;23.20;53.30;;;;;;5038685;28;20070;-60
2021/11/22 09:06:32;;;;;;;1.30;0.90;;;23.20;51.50;;;;;;5035871;28;20592;-58
2021/11/22 09:08:58;;;;;;;0.70;0.70;;;23.10;51.10;;;;;;5031541;28;20029;-59
2021/11/22 09:11:24;;;;;;;1.13;0.80;;;23.10;51.40;;;;;;5032949;28;20144;-57
2021/11/22 09:13:50;;;;;;;1.35;0.90;;;23.10;51.80;;;;;;5033864;28;20040;-59
2021/11/22 09:16:15;;;;;;;0.98;0.80;;;23.10;52.00;;;;;;5039139;28;20020;-60
2021/11/22 09:18:41;;;;;;;0.60;0.60;;;23.10;52.20;;;;;;5046358;28;20039;-60
2021/11/22 09:21:07;;;;;;;1.10;0.70;;;23.10;52.30;;;;;;5034570;28;20049;-60
2021/11/22 09:23:33;;;;;;;1.02;0.80;;;23.10;52.60;;;;;;5032082;28;20482;-58
2021/11/22 09:26:00;;;;;;;1.10;0.70;;;23.10;52.60;;;;;;5033704;28;20037;-60
2021/11/22 09:28:26;;;;;;;0.85;0.68;;;23.20;52.80;;;;;;5038698;28;20481;-60
2021/11/22 09:30:52;;;;;;;1.13;0.77;;;23.20;53.00;;;;;;5042471;28;20048;-59
2021/11/22 09:33:17;;;;;;;1.15;0.82;;;23.20;53.00;;;;;;5031350;28;20033;-60
2021/11/22 09:35:43;;;;;;;2.20;1.00;;;23.20;53.00;;;;;;5040957;28;20504;-59
2021/11/22 09:38:09;;;;;;;1.30;0.90;;;23.20;51.10;;;;;;5037566;28;20469;-59
2021/11/22 09:40:36;;;;;;;1.25;0.80;;;23.10;50.60;;;;;;5032371;28;20102;-57
2021/11/22 09:43:02;;;;;;;1.40;1.00;;;23.10;50.40;;;;;;5032355;28;20022;-60
2021/11/22 09:45:29;;;;;;;1.58;1.05;;;23.10;50.50;;;;;;5032253;28;20171;-58
2021/11/22 09:47:57;;;;;;;1.10;0.80;;;23.10;50.30;;;;;;5033970;28;20025;-60
2021/11/22 09:50:24;;;;;;;1.00;0.80;;;23.10;50.40;;;;;;5034695;28;20033;-59
2021/11/22 09:52:50;;;;;;;1.20;0.80;;;23.10;50.30;;;;;;5036350;28;20077;-59
2021/11/22 09:55:15;;;;;;;1.40;0.90;;;23.10;50.30;;;;;;5032635;28;20805;-60
2021/11/22 09:57:41;;;;;;;1.88;1.00;;;23.10;50.10;;;;;;5033862;28;20025;-60
2021/11/22 10:00:09;;;;;;;0.95;0.73;;;23.10;50.20;;;;;;5035295;28;20393;-59
2021/11/22 10:02:49;;;;;;;1.87;1.20;;;23.10;50.00;;;;;;5032668;28;20091;-60
2021/11/22 10:05:23;;;;;;;0.90;0.80;;;23.10;50.20;;;;;;5033579;28;20365;-60
2021/11/22 10:07:59;;;;;;;1.23;1.00;;;23.10;50.10;;;;;;5040126;28;20699;-60
2021/11/22 10:10:29;;;;;;;1.10;0.80;;;23.00;50.20;;;;;;5029348;28;20114;-59
2021/11/22 10:12:59;;;;;;;1.50;0.90;;;23.00;50.10;;;;;;5032840;28;20030;-60
2021/11/22 10:15:24;;;;;;;1.27;0.88;;;23.00;50.20;;;;;;5031831;28;20047;-59
2021/11/22 10:17:50;;;;;;;1.38;0.80;;;23.00;50.10;;;;;;5031588;28;20511;-60
2021/11/22 10:20:18;;;;;;;1.75;0.90;;;23.00;50.20;;;;;;5040594;28;20039;-60
2021/11/22 10:23:00;;;;;;;1.50;0.73;;;23.00;50.20;;;;;;5034644;28;20565;-59
2021/11/22 10:25:30;;;;;;;1.05;0.90;;;23.00;50.20;;;;;;5028696;28;20032;-60
2021/11/22 10:28:20;;;;;;;1.55;1.00;;;23.00;50.20;;;;;;5033709;28;20477;-56
2021/11/22 10:30:58;;;;;;;1.95;0.80;;;23.00;50.20;;;;;;5040090;28;20056;-59
2021/11/22 10:33:29;;;;;;;1.25;0.90;;;23.00;50.20;;;;;;5034921;28;20041;-59
2021/11/22 10:35:57;;;;;;;1.00;0.80;;;22.90;50.30;;;;;;5041139;28;20534;-58
2021/11/22 10:38:29;;;;;;;1.13;0.80;;;22.90;50.20;;;;;;5038186;28;20033;-58
2021/11/22 10:41:04;;;;;;;1.10;0.90;;;22.90;50.20;;;;;;5033128;28;20029;-60
2021/11/22 10:43:50;;;;;;;1.15;0.90;;;22.90;50.30;;;;;;5032262;28;20033;-61
2021/11/22 10:46:24;;;;;;;1.33;0.90;;;22.90;50.30;;;;;;5038489;28;20032;-60
2021/11/22 10:48:52;;;;;;;1.38;0.80;;;22.90;50.40;;;;;;5029899;28;20029;-59
2021/11/22 10:51:24;;;;;;;0.82;0.70;;;22.90;50.40;;;;;;5038400;28;20201;-60
2021/11/22 10:53:55;;;;;;;1.60;0.90;;;22.90;50.50;;;;;;5033220;28;20092;-61
2021/11/22 10:56:26;;;;;;;1.20;0.90;;;22.90;50.50;;;;;;5034509;28;20036;-60
2021/11/22 10:58:56;;;;;;;0.60;0.60;;;22.90;50.70;;;;;;5027807;28;20138;-60
2021/11/22 11:01:36;;;;;;;1.27;0.82;;;22.90;50.80;;;;;;5029131;28;20045;-60
2021/11/22 11:04:07;;;;;;;1.40;0.85;;;22.90;50.80;;;;;;5031366;28;20171;-60
2021/11/22 11:06:35;;;;;;;1.00;0.70;;;22.90;50.70;;;;;;5034500;28;20028;-56
2021/11/22 11:09:00;;;;;;;2.38;0.80;;;22.90;50.60;;;;;;5035760;28;20677;-59
2021/11/22 11:11:26;;;;;;;1.85;0.70;;;22.90;50.60;;;;;;5036780;28;20021;-60
2021/11/22 11:13:53;;;;;;;1.48;0.80;;;22.90;50.60;;;;;;5031388;28;20333;-59
2021/11/22 11:16:20;;;;;;;1.10;0.80;;;22.90;50.70;;;;;;5033062;28;20017;-60
2021/11/22 11:19:00;;;;;;;1.48;0.90;;;22.90;50.60;;;;;;5037100;28;20160;-59
2021/11/22 11:21:29;;;;;;;1.25;0.88;;;22.90;50.60;;;;;;5032439;28;20452;-60
2021/11/22 11:23:56;;;;;;;1.33;0.70;;;22.90;50.60;;;;;;5032364;28;20468;-59
2021/11/22 11:26:26;;;;;;;0.70;0.70;;;22.90;50.70;;;;;;5033529;28;20033;-60
2021/11/22 11:28:53;;;;;;;2.97;0.88;;;22.80;51.20;;;;;;5031645;28;20030;-60
2021/11/22 11:31:19;;;;;;;1.20;0.93;;;22.80;50.80;;;;;;5040294;28;20052;-60
2021/11/22 11:33:45;;;;;;;1.30;1.00;;;22.90;50.70;;;;;;5027625;28;20052;-59
2021/11/22 11:36:29;;;;;;;1.25;0.82;;;22.80;50.60;;;;;;5034346;28;20037;-60
2021/11/22 11:39:10;;;;;;;1.75;0.90;;;22.80;50.60;;;;;;5030831;28;20037;-59
2021/11/22 11:42:13;;;;;;;0.65;0.60;;;22.80;50.70;;;;;;5028641;28;20063;-59
2021/11/22 11:44:56;;;;;;;1.10;0.80;;;22.70;50.60;;;;;;5031283;28;20038;-59
2021/11/22 11:47:33;;;;;;;0.75;0.70;;;22.80;50.80;;;;;;5034320;28;20064;-58
2021/11/22 11:50:21;;;;;;;0.80;0.60;;;22.80;51.00;;;;;;5032386;28;20055;-60
2021/11/22 11:52:52;;;;;;;0.70;0.68;;;22.80;51.30;;;;;;5031724;28;20028;-60
2021/11/22 11:55:18;;;;;;;0.50;0.50;;;22.80;51.60;;;;;;5029740;28;20745;-60
2021/11/22 11:57:43;;;;;;;0.80;0.52;;;22.80;51.90;;;;;;5029812;28;20080;-59
2021/11/22 12:00:26;;;;;;;0.75;0.57;;;22.80;52.00;;;;;;5032592;28;20033;-60
2021/11/22 12:03:00;;;;;;;0.88;0.70;;;22.80;52.30;;;;;;5028422;28;20041;-56
2021/11/22 12:05:46;;;;;;;0.60;0.60;;;22.80;52.50;;;;;;5028584;28;20435;-59
2021/11/22 12:08:23;;;;;;;1.23;0.75;;;22.90;53.30;;;;;;5032946;28;20049;-59
2021/11/22 12:10:50;;;;;;;0.65;0.60;;;22.90;52.80;;;;;;5028727;28;20036;-61
2021/11/22 12:13:16;;;;;;;1.23;0.63;;;22.90;53.20;;;;;;5031272;28;20056;-59
2021/11/22 12:15:44;;;;;;;1.08;0.73;;;23.00;53.10;;;;;;5032514;28;20032;-58
2021/11/22 12:18:26;;;;;;;0.80;0.60;;;22.90;53.40;;;;;;5034098;28;20052;-58
2021/11/22 12:20:58;;;;;;;1.40;0.63;;;22.90;53.80;;;;;;5032351;28;20760;-58
2021/11/22 12:23:28;;;;;;;0.60;0.57;;;23.00;53.90;;;;;;5029773;28;20055;-58
2021/11/22 12:26:00;;;;;;;0.82;0.60;;;23.00;53.90;;;;;;5032699;28;20114;-58
2021/11/22 12:28:32;;;;;;;0.75;0.70;;;23.10;54.10;;;;;;5029942;28;20039;-59
2021/11/22 12:31:01;;;;;;;1.38;0.80;;;23.10;54.40;;;;;;5030902;28;20064;-57
2021/11/22 12:33:26;;;;;;;1.20;0.70;;;23.10;54.50;;;;;;5033015;28;20028;-59
2021/11/22 12:36:00;;;;;;;0.77;0.57;;;23.10;54.60;;;;;;5045225;28;20044;-58
2021/11/22 12:38:34;;;;;;;1.35;0.80;;;23.10;55.00;;;;;;5036806;28;20040;-59
2021/11/22 12:41:03;;;;;;;1.00;0.60;;;23.20;54.60;;;;;;5024935;28;20026;-55
2021/11/22 12:43:46;;;;;;;;;;;23.20;54.60;;;;;;5030579;28;20029;-58
2021/11/22 12:46:14;;;;;;;1.15;0.63;;;23.20;54.70;;;;;;5037196;28;19916;-59
2021/11/22 12:48:45;;;;;;;0.95;0.60;;;23.20;55.00;;;;;;5037385;28;20045;-59
2021/11/22 12:51:16;;;;;;;0.90;0.68;;;23.20;55.20;;;;;;5032893;28;20555;-59